Time;durP1;ratioP1;P1;durP2;ratioP2;P2;SDS_P1;SDS_P2;PMS_P1;PMS_P2;Temp;Humidity;BMP_temperature;BMP_pressure;BME280_temperature;BME280_humidity;BME280_pressure;Samples;Min_cycle;Max_cycle;Signal;HPM_P1;HPM_P2
2022/01/19 00:01:30;;;;;;;15.98;9.07;;;3.80;99.90;;;;;;5039697;28;20244;-52
2022/01/19 00:03:58;;;;;;;13.80;8.52;;;3.60;99.90;;;;;;5042651;28;20386;-50
2022/01/19 00:06:25;;;;;;;11.85;7.75;;;3.50;99.90;;;;;;5039091;28;20206;-51
2022/01/19 00:08:52;;;;;;;12.52;7.22;;;3.50;99.90;;;;;;5042913;28;20365;-49
2022/01/19 00:11:20;;;;;;;15.43;8.23;;;3.60;99.90;;;;;;5042530;28;20274;-52
2022/01/19 00:13:49;;;;;;;20.88;7.97;;;3.70;99.90;;;;;;5039729;28;20225;-50
2022/01/19 00:16:18;;;;;;;18.67;9.05;;;3.50;99.90;;;;;;5039754;28;20201;-50
2022/01/19 00:18:45;;;;;;;16.10;8.00;;;3.50;99.90;;;;;;5039756;28;20204;-50
2022/01/19 00:21:13;;;;;;;17.42;7.72;;;3.50;99.90;;;;;;5039988;28;20308;-51
2022/01/19 00:23:40;;;;;;;15.70;8.45;;;3.60;99.90;;;;;;5042383;28;20220;-50
2022/01/19 00:26:08;;;;;;;17.90;9.40;;;3.40;99.90;;;;;;5044216;28;20204;-51
2022/01/19 00:28:35;;;;;;;14.13;9.48;;;3.50;99.90;;;;;;5043848;28;20219;-54
2022/01/19 00:31:03;;;;;;;16.40;9.18;;;3.40;99.90;;;;;;5044166;28;20248;-50
2022/01/19 00:33:30;;;;;;;15.48;8.60;;;3.40;99.90;;;;;;5043729;28;20428;-51
2022/01/19 00:35:57;;;;;;;13.48;8.30;;;3.50;99.90;;;;;;5043863;28;20274;-50
2022/01/19 00:38:25;;;;;;;13.88;7.93;;;3.60;99.90;;;;;;5043700;28;20390;-50
2022/01/19 00:40:55;;;;;;;14.82;8.35;;;3.50;99.90;;;;;;5046455;28;20213;-53
2022/01/19 00:43:22;;;;;;;11.27;7.88;;;3.50;99.90;;;;;;5046811;28;20442;-52
2022/01/19 00:45:50;;;;;;;9.80;6.40;;;3.70;99.90;;;;;;5044759;28;20210;-49
2022/01/19 00:48:26;;;;;;;12.45;7.78;;;3.80;99.90;;;;;;5044270;28;20197;-53
2022/01/19 00:50:56;;;;;;;11.00;8.13;;;4.00;99.90;;;;;;5043693;28;20197;-49
2022/01/19 00:53:24;;;;;;;14.73;10.35;;;4.10;99.90;;;;;;5043743;28;20217;-54
2022/01/19 00:55:52;;;;;;;17.83;9.23;;;4.10;99.90;;;;;;5043837;28;20203;-50
2022/01/19 00:58:19;;;;;;;11.40;7.45;;;4.00;99.90;;;;;;5047338;28;20228;-49
2022/01/19 01:00:47;;;;;;;16.63;8.57;;;3.90;99.90;;;;;;5044378;28;20251;-51
2022/01/19 01:03:15;;;;;;;12.40;7.93;;;3.90;99.90;;;;;;5044532;28;20226;-50
2022/01/19 01:05:44;;;;;;;17.00;9.10;;;4.00;99.90;;;;;;5046047;28;20209;-52
2022/01/19 01:08:12;;;;;;;10.45;8.60;;;3.80;99.90;;;;;;5043885;28;20235;-51
2022/01/19 01:10:43;;;;;;;19.20;8.63;;;4.00;99.90;;;;;;5043725;28;20391;-49
2022/01/19 01:18:28;;;;;;;12.98;8.73;;;4.00;99.90;;;;;;5042990;28;20201;-52
2022/01/19 01:20:57;;;;;;;18.60;8.77;;;3.60;99.90;;;;;;5044216;28;20548;-48
2022/01/19 01:23:26;;;;;;;15.13;9.35;;;3.80;99.90;;;;;;5043199;28;20464;-50
2022/01/19 01:25:54;;;;;;;17.50;10.85;;;3.80;99.90;;;;;;5043591;28;20202;-49
2022/01/19 01:28:22;;;;;;;17.77;10.35;;;3.80;99.90;;;;;;5043093;28;20250;-52
2022/01/19 01:30:50;;;;;;;19.40;9.45;;;3.70;99.90;;;;;;5049190;28;20202;-48
2022/01/19 01:33:18;;;;;;;16.17;8.93;;;3.70;99.90;;;;;;5042906;28;20230;-50
2022/01/19 01:35:45;;;;;;;17.75;8.85;;;3.60;99.90;;;;;;5042857;28;20254;-49
2022/01/19 01:38:13;;;;;;;22.48;10.48;;;3.80;99.90;;;;;;5043222;28;20222;-52
2022/01/19 01:41:00;;;;;;;13.52;8.00;;;3.90;99.90;;;;;;5043027;28;20200;-51
2022/01/19 01:43:28;;;;;;;18.70;9.48;;;3.80;99.90;;;;;;5051061;28;20252;-50
2022/01/19 01:46:01;;;;;;;13.65;8.25;;;3.90;99.90;;;;;;5043160;28;20197;-53
2022/01/19 01:48:29;;;;;;;11.15;6.45;;;3.80;99.90;;;;;;5043599;28;20236;-52
2022/01/19 01:53:42;;;;;;;10.98;7.45;;;3.80;99.90;;;;;;5045258;28;20225;-50
2022/01/19 01:56:14;;;;;;;12.13;6.93;;;3.70;99.90;;;;;;5042917;28;20404;-54
2022/01/19 01:58:47;;;;;;;14.48;8.05;;;3.50;99.90;;;;;;5042567;28;20236;-51
2022/01/19 02:01:14;;;;;;;12.63;7.25;;;3.60;99.90;;;;;;5042529;28;20202;-50
2022/01/19 02:03:43;;;;;;;10.40;6.15;;;3.60;99.90;;;;;;5042798;28;20576;-51
2022/01/19 02:08:47;;;;;;;16.00;7.55;;;3.70;99.90;;;;;;5042380;28;20198;-52
2022/01/19 02:25:55;;;;;;;15.88;7.97;;;3.60;99.90;;;;;;5043431;28;20198;-52
2022/01/19 02:42:16;;;;;;;14.43;8.60;;;3.50;99.90;;;;;;5049753;28;20220;-50
2022/01/19 02:49:41;;;;;;;13.73;7.63;;;3.40;99.90;;;;;;5043155;28;20244;-53
2022/01/19 02:52:08;;;;;;;12.13;7.68;;;3.40;99.90;;;;;;5041966;28;20193;-49
2022/01/19 02:54:36;;;;;;;9.52;6.93;;;3.50;99.90;;;;;;5045015;28;20262;-53
2022/01/19 02:57:04;;;;;;;12.32;7.47;;;3.50;99.90;;;;;;5042878;28;20316;-52
2022/01/19 03:06:17;;;;;;;19.73;8.10;;;3.60;99.90;;;;;;5041945;28;20212;-52
2022/01/19 03:10:50;;;;;;;8.30;6.32;;;3.40;99.90;;;;;;5044808;28;20203;-50
2022/01/19 03:13:17;;;;;;;11.75;6.18;;;3.30;99.90;;;;;;5047530;28;20221;-51
2022/01/19 03:15:44;;;;;;;9.23;6.75;;;3.30;99.90;;;;;;5041890;28;20435;-50
2022/01/19 03:18:11;;;;;;;8.90;6.47;;;3.30;99.90;;;;;;5042602;28;20326;-50
2022/01/19 03:20:39;;;;;;;8.18;6.68;;;3.40;99.90;;;;;;5041693;28;20247;-50
2022/01/19 03:23:17;;;;;;;9.60;7.05;;;3.30;99.90;;;;;;5042469;28;20232;-53
2022/01/19 03:25:44;;;;;;;16.58;7.05;;;3.40;99.90;;;;;;5044020;28;20207;-54
2022/01/19 03:28:12;;;;;;;11.68;6.05;;;3.40;99.90;;;;;;5043217;28;20204;-54
2022/01/19 03:30:39;;;;;;;8.60;5.30;;;3.40;99.90;;;;;;5044898;28;20198;-54
2022/01/19 03:33:06;;;;;;;11.63;5.20;;;3.40;99.90;;;;;;5043009;28;20224;-49
2022/01/19 03:35:35;;;;;;;7.75;5.60;;;3.50;99.90;;;;;;5041875;28;20220;-53
2022/01/19 03:38:02;;;;;;;7.40;4.60;;;3.50;99.90;;;;;;5042326;28;20206;-49
2022/01/19 03:40:30;;;;;;;11.50;6.25;;;3.40;99.90;;;;;;5041766;28;20549;-51
2022/01/19 03:42:57;;;;;;;5.63;4.70;;;3.40;99.90;;;;;;5042758;28;20431;-52
2022/01/19 03:45:25;;;;;;;9.45;5.53;;;3.40;99.90;;;;;;5043545;28;20197;-52
2022/01/19 03:48:08;;;;;;;8.85;4.60;;;3.40;99.90;;;;;;5042976;28;20244;-49
2022/01/19 03:50:37;;;;;;;10.27;5.80;;;3.30;99.90;;;;;;5042255;28;20208;-48
2022/01/19 03:53:04;;;;;;;10.18;6.22;;;3.20;99.90;;;;;;5042736;28;20205;-52
2022/01/19 03:55:32;;;;;;;10.30;5.97;;;3.30;99.90;;;;;;5042008;28;20213;-56
2022/01/19 03:57:59;;;;;;;9.50;5.63;;;3.40;99.90;;;;;;5041920;28;20201;-51
2022/01/19 04:00:28;;;;;;;8.38;5.10;;;3.50;99.90;;;;;;5041511;28;20508;-51
2022/01/19 04:02:56;;;;;;;7.93;5.85;;;3.60;99.90;;;;;;5042740;28;20223;-49
2022/01/19 04:05:37;;;;;;;10.65;6.45;;;3.50;99.90;;;;;;5041089;28;20251;-54
2022/01/19 04:08:05;;;;;;;14.85;6.57;;;3.50;99.90;;;;;;5042434;28;20450;-50
2022/01/19 04:10:32;;;;;;;7.78;5.68;;;3.50;99.90;;;;;;5041210;28;20256;-54
2022/01/19 04:13:22;;;;;;;9.38;5.80;;;3.40;99.90;;;;;;5042676;28;20209;-52
2022/01/19 04:15:50;;;;;;;8.77;6.22;;;3.40;99.90;;;;;;5044083;28;20244;-47
2022/01/19 04:18:18;;;;;;;7.72;4.72;;;3.40;99.90;;;;;;5041601;28;20214;-49
2022/01/19 04:20:50;;;;;;;12.30;6.07;;;3.40;99.90;;;;;;5041402;28;20201;-52
2022/01/19 04:23:19;;;;;;;8.18;6.13;;;3.40;99.90;;;;;;5042664;28;20458;-51
2022/01/19 04:25:47;;;;;;;11.85;6.22;;;3.40;99.90;;;;;;5042649;28;20197;-50
2022/01/19 04:28:14;;;;;;;7.43;5.72;;;3.60;99.90;;;;;;5043823;28;20414;-49
2022/01/19 04:30:42;;;;;;;8.27;5.95;;;3.40;99.90;;;;;;5043170;28;20197;-51
2022/01/19 04:33:17;;;;;;;10.77;7.20;;;3.40;99.90;;;;;;5042680;28;20245;-52
2022/01/19 04:35:50;;;;;;;12.15;6.93;;;3.40;99.90;;;;;;5044427;28;20204;-47
2022/01/19 04:46:45;;;;;;;11.23;5.97;;;3.50;99.90;;;;;;5042547;28;20241;-52
2022/01/19 05:01:32;;;;;;;8.02;6.15;;;3.60;99.90;;;;;;5046202;28;20220;-50
2022/01/19 05:05:47;;;;;;;7.57;6.18;;;3.70;99.90;;;;;;5046463;28;20201;-51
2022/01/19 05:08:33;;;;;;;8.25;5.45;;;3.70;99.90;;;;;;5045238;28;20207;-52
2022/01/19 05:13:53;;;;;;;8.25;5.78;;;3.60;99.90;;;;;;5074618;28;20224;-52
2022/01/19 05:16:21;;;;;;;10.55;6.78;;;3.60;99.90;;;;;;5065509;28;20610;-50
2022/01/19 05:18:50;;;;;;;9.75;6.80;;;3.70;99.90;;;;;;5053092;28;20220;-54
2022/01/19 05:21:18;;;;;;;12.73;7.60;;;3.50;99.90;;;;;;5045937;28;20391;-49
2022/01/19 05:23:46;;;;;;;9.38;7.20;;;3.60;99.90;;;;;;5049325;28;20232;-50
2022/01/19 05:26:13;;;;;;;13.15;7.50;;;3.60;99.90;;;;;;5049934;28;20521;-51
2022/01/19 05:28:40;;;;;;;13.30;7.47;;;3.60;99.90;;;;;;5063661;28;20265;-49
2022/01/19 05:31:08;;;;;;;13.00;7.32;;;3.60;99.90;;;;;;5058067;28;20494;-53
2022/01/19 05:33:35;;;;;;;11.23;6.57;;;3.40;99.90;;;;;;5056702;28;20459;-54
2022/01/19 05:36:03;;;;;;;11.23;6.22;;;3.40;99.90;;;;;;5050384;28;20255;-52
2022/01/19 05:38:31;;;;;;;12.15;7.72;;;3.40;99.90;;;;;;5047073;28;20221;-51
2022/01/19 05:40:58;;;;;;;12.05;7.22;;;3.50;99.90;;;;;;5048277;28;20280;-53
2022/01/19 05:43:26;;;;;;;10.65;7.05;;;3.60;99.90;;;;;;5061707;28;20412;-51
2022/01/19 05:45:53;;;;;;;11.25;6.20;;;3.40;99.90;;;;;;5062324;28;20281;-51
2022/01/19 05:48:21;;;;;;;17.33;7.80;;;3.40;99.90;;;;;;5062262;28;20269;-53
2022/01/19 05:50:49;;;;;;;17.27;8.88;;;3.30;99.90;;;;;;5060987;28;20218;-49
2022/01/19 05:53:17;;;;;;;15.52;8.80;;;3.20;99.90;;;;;;5059409;28;20227;-50
2022/01/19 05:55:45;;;;;;;21.33;9.57;;;3.20;99.90;;;;;;5057814;28;20515;-50
2022/01/19 05:58:13;;;;;;;17.77;8.18;;;3.20;99.90;;;;;;5064989;28;20246;-50
2022/01/19 06:00:40;;;;;;;16.23;7.75;;;3.20;99.90;;;;;;5062750;28;20205;-51
2022/01/19 06:03:07;;;;;;;11.18;7.95;;;3.20;99.90;;;;;;5071739;28;20596;-52
2022/01/19 06:05:35;;;;;;;15.93;8.77;;;3.10;99.90;;;;;;5073699;28;20196;-54
2022/01/19 06:08:12;;;;;;;18.23;8.63;;;3.10;99.90;;;;;;5082375;28;20196;-48
2022/01/19 06:10:42;;;;;;;17.08;8.20;;;3.20;99.90;;;;;;5084854;28;20191;-52
2022/01/19 06:13:15;;;;;;;16.25;9.07;;;3.20;99.90;;;;;;5065184;28;20208;-50
2022/01/19 06:15:44;;;;;;;20.20;10.07;;;3.30;99.90;;;;;;5043294;28;20201;-50
2022/01/19 06:18:12;;;;;;;18.50;9.98;;;3.40;99.90;;;;;;5042023;28;20201;-51
2022/01/19 06:20:40;;;;;;;14.13;11.10;;;3.30;99.90;;;;;;5043003;28;20490;-50
2022/01/19 06:23:07;;;;;;;20.88;10.13;;;3.20;99.90;;;;;;5044529;28;20225;-53
2022/01/19 06:25:34;;;;;;;19.33;9.60;;;3.30;99.90;;;;;;5044062;28;20247;-52
2022/01/19 06:28:03;;;;;;;14.48;9.23;;;3.30;99.90;;;;;;5060179;28;20200;-49
2022/01/19 06:30:30;;;;;;;15.40;10.90;;;3.10;99.90;;;;;;5049167;28;20242;-53
2022/01/19 06:32:57;;;;;;;18.17;10.13;;;3.00;99.90;;;;;;5069392;28;20217;-51
2022/01/19 06:35:24;;;;;;;14.35;9.65;;;2.90;99.90;;;;;;5084382;28;20205;-53
2022/01/19 06:37:52;;;;;;;18.70;11.80;;;3.00;99.90;;;;;;5082086;28;20207;-49
2022/01/19 06:40:25;;;;;;;13.20;8.15;;;2.80;99.90;;;;;;5081253;28;20230;-51
2022/01/19 06:42:54;;;;;;;15.95;10.48;;;2.80;99.90;;;;;;5082178;28;20220;-52
2022/01/19 06:45:26;;;;;;;18.23;10.80;;;2.80;99.90;;;;;;5081593;28;20244;-48
2022/01/19 06:47:53;;;;;;;14.02;8.00;;;2.80;99.90;;;;;;5070376;28;20204;-52
2022/01/19 06:50:22;;;;;;;14.95;9.65;;;2.70;99.90;;;;;;5064622;28;20379;-48
2022/01/19 06:52:50;;;;;;;14.98;9.20;;;2.60;99.90;;;;;;5072875;28;20211;-50
2022/01/19 06:55:17;;;;;;;13.73;8.57;;;2.50;99.90;;;;;;5064541;28;20195;-50
2022/01/19 06:57:45;;;;;;;21.40;9.73;;;2.50;99.90;;;;;;5080930;28;20222;-48
2022/01/19 07:00:14;;;;;;;15.75;8.57;;;2.70;99.90;;;;;;5081258;28;20207;-52
2022/01/19 07:02:41;;;;;;;15.52;9.32;;;2.70;99.90;;;;;;5081003;28;20223;-51
2022/01/19 07:05:09;;;;;;;22.38;9.20;;;2.60;99.90;;;;;;5081031;28;20219;-54
2022/01/19 07:07:37;;;;;;;18.42;9.35;;;2.50;99.90;;;;;;5080956;28;20195;-50
2022/01/19 07:10:07;;;;;;;19.00;10.57;;;2.60;99.90;;;;;;5080979;28;20196;-50
2022/01/19 07:12:35;;;;;;;16.52;9.60;;;2.50;99.90;;;;;;5081087;28;20201;-51
2022/01/19 07:15:04;;;;;;;15.00;10.18;;;2.70;99.90;;;;;;5080224;28;20235;-53
2022/01/19 07:17:33;;;;;;;15.85;10.70;;;2.80;99.90;;;;;;5080884;28;20232;-54
2022/01/19 07:20:00;;;;;;;15.57;10.10;;;2.70;99.90;;;;;;5080160;28;20215;-52
2022/01/19 07:22:27;;;;;;;21.58;11.52;;;2.70;99.90;;;;;;5080517;28;20206;-49
2022/01/19 07:24:54;;;;;;;20.35;12.73;;;2.70;99.90;;;;;;5080316;28;20219;-51
2022/01/19 07:27:21;;;;;;;22.90;10.40;;;2.60;99.90;;;;;;5067813;28;20206;-52
2022/01/19 07:29:49;;;;;;;17.40;11.63;;;2.70;99.90;;;;;;5060451;28;20220;-52
2022/01/19 07:32:17;;;;;;;17.23;10.30;;;2.80;99.90;;;;;;5051939;28;20188;-51
2022/01/19 07:34:44;;;;;;;16.48;11.88;;;2.80;99.90;;;;;;5060626;28;20265;-54
2022/01/19 07:37:13;;;;;;;19.38;11.70;;;3.10;99.90;;;;;;5059726;28;20197;-52
2022/01/19 07:39:41;;;;;;;19.08;10.00;;;3.10;99.90;;;;;;5060434;28;20217;-50
2022/01/19 07:42:08;;;;;;;16.58;11.63;;;3.50;99.90;;;;;;5059570;28;20220;-53
2022/01/19 07:44:35;;;;;;;18.05;10.40;;;3.40;99.90;;;;;;5060037;28;20258;-55
2022/01/19 07:47:03;;;;;;;25.23;10.98;;;3.40;99.90;;;;;;5059744;28;20242;-52
2022/01/19 07:49:30;;;;;;;18.95;10.82;;;3.40;99.90;;;;;;5059466;28;20403;-50
2022/01/19 07:51:57;;;;;;;14.20;8.48;;;3.80;99.90;;;;;;5062354;28;20204;-53
2022/01/19 07:54:25;;;;;;;18.15;9.10;;;3.70;99.90;;;;;;5061645;28;20220;-54
2022/01/19 07:56:52;;;;;;;12.10;8.95;;;3.90;99.90;;;;;;5060303;28;20200;-53
2022/01/19 07:59:20;;;;;;;13.02;7.55;;;4.30;99.90;;;;;;5060120;28;20243;-53
2022/01/19 08:01:47;;;;;;;8.82;6.15;;;4.40;99.90;;;;;;5059996;28;20224;-52
2022/01/19 08:04:15;;;;;;;11.07;8.20;;;4.60;99.90;;;;;;5062921;28;20435;-52
2022/01/19 08:06:42;;;;;;;11.07;8.90;;;4.70;99.90;;;;;;5070922;28;20560;-51
2022/01/19 08:09:10;;;;;;;11.65;7.07;;;4.50;99.90;;;;;;5079433;28;20208;-50
2022/01/19 08:11:37;;;;;;;18.83;8.90;;;4.50;99.90;;;;;;5079951;28;20201;-50
2022/01/19 08:14:07;;;;;;;18.38;9.93;;;4.40;99.90;;;;;;5079804;28;20610;-53
2022/01/19 08:16:34;;;;;;;12.98;8.38;;;4.50;99.90;;;;;;5081041;28;20201;-51
2022/01/19 08:19:01;;;;;;;14.27;9.60;;;4.30;99.90;;;;;;5081485;28;20229;-53
2022/01/19 08:21:32;;;;;;;16.88;10.48;;;4.00;99.90;;;;;;5080549;28;20201;-53
2022/01/19 08:24:00;;;;;;;23.48;12.75;;;3.60;99.90;;;;;;5080832;28;20400;-53
2022/01/19 08:26:27;;;;;;;18.40;11.70;;;3.60;99.90;;;;;;5081940;28;20235;-53
2022/01/19 08:28:54;;;;;;;13.60;8.52;;;3.60;99.90;;;;;;5082267;28;20415;-52
2022/01/19 08:31:22;;;;;;;15.93;9.80;;;3.70;99.90;;;;;;5082645;28;20243;-52
2022/01/19 08:33:49;;;;;;;13.15;9.65;;;3.50;99.90;;;;;;5083041;28;20257;-52
2022/01/19 08:36:17;;;;;;;18.42;11.48;;;3.50;99.90;;;;;;5080664;28;20426;-50
2022/01/19 08:38:44;;;;;;;22.65;10.32;;;3.40;99.90;;;;;;5075337;28;20206;-52
2022/01/19 08:41:13;;;;;;;16.42;9.57;;;3.80;99.90;;;;;;5059556;28;20237;-49
2022/01/19 08:43:40;;;;;;;18.48;11.05;;;4.00;99.90;;;;;;5060883;28;20239;-49
2022/01/19 08:46:08;;;;;;;17.77;10.32;;;4.00;99.90;;;;;;5063182;28;20198;-53
2022/01/19 08:48:36;;;;;;;18.05;10.27;;;4.00;99.90;;;;;;5063048;28;20231;-51
2022/01/19 08:51:04;;;;;;;15.77;11.50;;;3.90;99.90;;;;;;5061904;28;20570;-53
2022/01/19 08:53:32;;;;;;;15.75;8.70;;;3.70;99.90;;;;;;5062584;28;20548;-52
2022/01/19 08:56:00;;;;;;;15.30;8.93;;;3.90;99.90;;;;;;5063280;28;20561;-50
2022/01/19 08:58:27;;;;;;;13.90;8.27;;;3.90;99.90;;;;;;5062753;28;20404;-50
2022/01/19 09:00:54;;;;;;;11.68;9.57;;;4.30;99.90;;;;;;5063429;28;20208;-52
2022/01/19 09:03:22;;;;;;;26.08;15.57;;;4.60;99.90;;;;;;5062619;28;20257;-50
2022/01/19 09:05:49;;;;;;;22.73;11.55;;;4.80;99.90;;;;;;5062951;28;20522;-50
2022/01/19 09:08:17;;;;;;;12.50;9.30;;;5.00;99.90;;;;;;5063826;28;20197;-52
2022/01/19 09:10:47;;;;;;;13.65;8.40;;;5.00;99.90;;;;;;5062997;28;20222;-53
2022/01/19 09:13:14;;;;;;;21.98;10.13;;;4.90;99.90;;;;;;5064900;28;20230;-55
2022/01/19 09:15:42;;;;;;;19.60;8.98;;;4.80;99.90;;;;;;5065961;28;20269;-50
2022/01/19 09:18:09;;;;;;;15.07;8.18;;;4.70;99.90;;;;;;5063551;28;20229;-50
2022/01/19 09:20:36;;;;;;;11.32;7.57;;;4.40;99.90;;;;;;5063397;28;20355;-52
2022/01/19 09:23:04;;;;;;;11.13;7.28;;;4.30;99.90;;;;;;5062565;28;20198;-55
2022/01/19 09:25:32;;;;;;;22.60;9.18;;;4.30;99.90;;;;;;5063158;28;20201;-53
2022/01/19 09:28:02;;;;;;;11.88;7.32;;;4.50;99.90;;;;;;5062785;28;20198;-51
2022/01/19 09:30:29;;;;;;;19.13;8.57;;;4.20;99.90;;;;;;5063063;28;20211;-51
2022/01/19 09:33:10;;;;;;;13.55;8.75;;;3.90;99.90;;;;;;5064857;28;20301;-52
2022/01/19 09:38:35;;;;;;;17.35;9.77;;;3.70;99.90;;;;;;5060433;28;20260;-54
2022/01/19 09:41:03;;;;;;;11.75;9.02;;;3.70;99.90;;;;;;5064044;28;20213;-54
2022/01/19 09:43:30;;;;;;;16.95;9.43;;;3.60;99.90;;;;;;5067341;28;20439;-49
2022/01/19 09:45:59;;;;;;;13.75;9.15;;;3.70;99.90;;;;;;5062013;28;20236;-50
2022/01/19 09:48:28;;;;;;;12.35;9.20;;;3.80;99.90;;;;;;5062474;28;20601;-51
2022/01/19 09:50:56;;;;;;;13.45;8.48;;;3.90;99.90;;;;;;5061830;28;20504;-52
2022/01/19 09:53:25;;;;;;;19.00;11.20;;;4.00;99.90;;;;;;5062501;28;20236;-52
2022/01/19 09:55:52;;;;;;;13.98;9.90;;;3.90;99.90;;;;;;5059652;28;20535;-51
2022/01/19 09:58:21;;;;;;;13.50;8.38;;;3.80;99.90;;;;;;5061953;28;20459;-50
2022/01/19 10:00:52;;;;;;;11.20;7.57;;;3.90;99.90;;;;;;5063301;28;20201;-52
2022/01/19 10:03:26;;;;;;;14.07;10.05;;;4.00;99.90;;;;;;5054414;28;20268;-54
2022/01/19 10:05:55;;;;;;;10.07;6.53;;;3.90;99.90;;;;;;5061756;28;20275;-50
2022/01/19 10:08:35;;;;;;;9.75;6.95;;;3.80;99.90;;;;;;5061024;28;20198;-51
2022/01/19 10:11:18;;;;;;;9.55;6.07;;;3.70;99.90;;;;;;5061869;28;20206;-52
2022/01/19 10:16:59;;;;;;;7.85;7.05;;;3.90;99.90;;;;;;5056357;28;20239;-51
2022/01/19 10:19:38;;;;;;;9.13;6.28;;;3.90;99.90;;;;;;5061590;28;20236;-50
2022/01/19 10:22:14;;;;;;;15.13;8.73;;;3.90;99.90;;;;;;5061970;28;20203;-52
2022/01/19 10:25:01;;;;;;;13.30;8.10;;;4.00;99.90;;;;;;5062070;28;20237;-50
2022/01/19 10:27:32;;;;;;;13.90;9.05;;;4.00;99.90;;;;;;5041908;28;20248;-52
2022/01/19 10:30:02;;;;;;;12.95;9.32;;;4.20;99.90;;;;;;5041756;28;20203;-55
2022/01/19 10:32:42;;;;;;;14.13;7.65;;;4.20;99.90;;;;;;5041166;28;20280;-48
2022/01/19 10:35:37;;;;;;;12.88;8.35;;;4.10;99.90;;;;;;5041824;28;20264;-49
2022/01/19 10:38:11;;;;;;;12.00;8.48;;;4.10;99.90;;;;;;5041578;28;20242;-51
2022/01/19 10:40:42;;;;;;;9.00;7.72;;;4.20;99.90;;;;;;5041588;28;20606;-50
2022/01/19 10:43:28;;;;;;;11.63;8.27;;;4.20;99.90;;;;;;5040811;28;20433;-51
2022/01/19 10:46:20;;;;;;;8.73;7.75;;;4.30;99.90;;;;;;5041494;28;20213;-50
2022/01/19 10:48:47;;;;;;;10.48;7.28;;;4.40;99.90;;;;;;5041583;28;20198;-51
2022/01/19 10:51:18;;;;;;;13.73;7.50;;;4.40;99.90;;;;;;5041871;28;20196;-50
2022/01/19 10:54:05;;;;;;;12.65;7.20;;;4.50;99.90;;;;;;5040980;28;20224;-52
2022/01/19 10:56:34;;;;;;;13.52;8.07;;;4.70;99.90;;;;;;5041710;28;20405;-52
2022/01/19 10:59:07;;;;;;;13.65;8.13;;;4.70;99.90;;;;;;5041194;28;20206;-50
2022/01/19 11:01:37;;;;;;;13.98;7.65;;;4.80;99.90;;;;;;5041358;28;20249;-52
2022/01/19 11:04:19;;;;;;;11.27;8.55;;;4.70;99.90;;;;;;5040979;28;20232;-51
2022/01/19 11:07:13;;;;;;;10.95;7.10;;;4.70;99.90;;;;;;5040267;28;20348;-50
2022/01/19 11:09:56;;;;;;;11.93;7.25;;;4.60;99.90;;;;;;5042890;28;20501;-49
2022/01/19 11:12:32;;;;;;;11.35;6.45;;;4.70;99.90;;;;;;5043350;28;20425;-51
2022/01/19 11:14:59;;;;;;;8.93;6.88;;;4.60;99.90;;;;;;5041558;28;20404;-52
2022/01/19 11:17:36;;;;;;;9.05;6.68;;;4.70;99.90;;;;;;5041214;28;20210;-49
2022/01/19 11:20:07;;;;;;;14.10;6.80;;;4.60;99.90;;;;;;5041046;28;20219;-52
2022/01/19 11:23:06;;;;;;;12.63;8.35;;;4.70;99.90;;;;;;5041528;28;20200;-52
2022/01/19 11:25:50;;;;;;;9.82;7.07;;;4.70;99.90;;;;;;5039400;28;20226;-53
2022/01/19 11:28:35;;;;;;;14.30;7.50;;;4.70;99.90;;;;;;5040630;28;20225;-53
2022/01/19 11:31:09;;;;;;;12.73;7.07;;;4.60;99.90;;;;;;5040249;28;20209;-51
2022/01/19 11:33:53;;;;;;;11.65;7.43;;;4.50;99.90;;;;;;5040542;28;20218;-51
2022/01/19 11:36:31;;;;;;;10.85;7.75;;;4.50;99.90;;;;;;5039534;28;20221;-51
2022/01/19 11:39:20;;;;;;;10.38;7.57;;;4.50;99.90;;;;;;5040372;28;20198;-53
2022/01/19 11:41:55;;;;;;;11.25;7.07;;;4.60;99.90;;;;;;5040446;28;20204;-50
2022/01/19 11:44:32;;;;;;;11.27;8.50;;;4.60;99.90;;;;;;5040232;28;20568;-52
2022/01/19 11:47:08;;;;;;;13.20;8.65;;;4.60;99.90;;;;;;5040117;28;20203;-52
2022/01/19 11:49:53;;;;;;;14.30;9.27;;;4.60;99.90;;;;;;5040886;28;20199;-50
2022/01/19 11:52:27;;;;;;;15.57;8.20;;;4.60;99.90;;;;;;5039783;28;20329;-49
2022/01/19 11:55:11;;;;;;;13.35;8.25;;;4.60;99.90;;;;;;5040240;28;20220;-52
2022/01/19 11:57:40;;;;;;;13.18;7.88;;;4.60;99.90;;;;;;5039900;28;20210;-51
2022/01/19 12:00:11;;;;;;;12.07;8.30;;;4.80;99.90;;;;;;5039614;28;20214;-50
2022/01/19 12:02:43;;;;;;;14.13;8.48;;;4.80;99.90;;;;;;5039282;28;20207;-54
2022/01/19 12:05:39;;;;;;;13.15;10.50;;;4.80;99.90;;;;;;5039259;28;20222;-54
2022/01/19 12:08:30;;;;;;;13.95;9.80;;;4.70;99.90;;;;;;5039078;28;20390;-52
2022/01/19 12:11:22;;;;;;;11.18;7.95;;;4.70;99.90;;;;;;5039992;28;20636;-51
2022/01/19 12:14:10;;;;;;;8.82;7.55;;;4.70;99.90;;;;;;5040709;28;20282;-54
2022/01/19 12:19:07;;;;;;;20.42;13.20;;;4.80;99.90;;;;;;5038970;28;20208;-53
2022/01/19 12:21:36;;;;;;;11.40;8.70;;;4.90;99.90;;;;;;5040101;28;20425;-52
2022/01/19 12:24:30;;;;;;;11.43;9.35;;;4.90;99.90;;;;;;5039540;28;20241;-48
2022/01/19 12:27:06;;;;;;;13.60;9.95;;;5.00;99.90;;;;;;5039705;28;20202;-53
2022/01/19 12:29:36;;;;;;;19.23;10.55;;;4.90;99.90;;;;;;5040327;28;20427;-54
2022/01/19 12:32:16;;;;;;;14.02;9.93;;;4.80;99.90;;;;;;5058682;28;20198;-52
2022/01/19 12:34:45;;;;;;;11.25;9.63;;;4.80;99.90;;;;;;5059682;28;20221;-51
2022/01/19 12:37:34;;;;;;;16.45;9.60;;;4.80;99.90;;;;;;5059728;28;20222;-51
2022/01/19 12:40:05;;;;;;;12.90;10.15;;;4.80;99.90;;;;;;5058990;28;20207;-52
2022/01/19 12:42:43;;;;;;;11.73;9.43;;;4.90;99.90;;;;;;5059751;28;20629;-53
2022/01/19 12:45:32;;;;;;;12.15;8.63;;;4.80;99.90;;;;;;5058663;28;20248;-52
2022/01/19 12:48:00;;;;;;;13.00;10.20;;;4.90;99.90;;;;;;5059132;28;20252;-54
2022/01/19 12:50:42;;;;;;;19.83;10.38;;;5.00;99.90;;;;;;5064889;28;20226;-56
2022/01/19 12:53:18;;;;;;;16.52;9.23;;;5.10;99.90;;;;;;5060695;28;20375;-54
2022/01/19 12:55:49;;;;;;;12.02;9.18;;;5.10;99.90;;;;;;5059408;28;20203;-51
2022/01/19 12:58:37;;;;;;;19.70;9.70;;;5.30;99.90;;;;;;5058980;28;20195;-49
2022/01/19 13:01:08;;;;;;;12.00;8.98;;;5.30;99.90;;;;;;5059526;28;20203;-54
2022/01/19 13:03:42;;;;;;;17.23;9.95;;;5.10;99.90;;;;;;5058765;28;20537;-51
2022/01/19 13:06:13;;;;;;;15.02;9.68;;;5.20;99.90;;;;;;5059405;28;20453;-50
2022/01/19 13:08:52;;;;;;;17.77;12.02;;;5.30;99.90;;;;;;5059118;28;20198;-50
2022/01/19 13:11:29;;;;;;;18.40;11.07;;;5.40;99.90;;;;;;5059319;28;20511;-49
2022/01/19 13:14:04;;;;;;;10.07;9.07;;;5.40;99.90;;;;;;5057925;28;20293;-50
2022/01/19 13:16:36;;;;;;;17.70;8.85;;;5.30;99.90;;;;;;5059418;28;20397;-51
2022/01/19 13:19:27;;;;;;;13.02;9.40;;;5.20;99.90;;;;;;5059086;28;20559;-53
2022/01/19 13:22:04;;;;;;;11.80;8.40;;;5.30;99.90;;;;;;5059243;28;20293;-54
2022/01/19 13:24:34;;;;;;;12.70;8.60;;;5.30;99.90;;;;;;5058542;28;20227;-55
2022/01/19 13:27:05;;;;;;;10.95;8.20;;;5.40;99.90;;;;;;5058480;28;20507;-52
2022/01/19 13:29:47;;;;;;;10.98;7.60;;;5.30;99.90;;;;;;5059739;28;20401;-49
2022/01/19 13:32:18;;;;;;;14.05;10.15;;;5.20;99.90;;;;;;5062330;28;20249;-54
2022/01/19 13:34:55;;;;;;;17.38;8.70;;;5.20;99.90;;;;;;5062455;28;20223;-54
2022/01/19 13:37:56;;;;;;;14.82;10.23;;;5.20;99.90;;;;;;5061845;28;20520;-51
2022/01/19 13:40:26;;;;;;;14.85;8.27;;;5.30;99.90;;;;;;5061113;28;20225;-52
2022/01/19 13:43:00;;;;;;;17.30;9.32;;;5.30;99.90;;;;;;5061990;28;20383;-53
2022/01/19 13:51:02;;;;;;;13.65;8.07;;;5.10;99.90;;;;;;5082376;28;20237;-51
2022/01/19 13:53:34;;;;;;;11.38;7.80;;;5.10;99.90;;;;;;5081983;28;20238;-51
2022/01/19 13:56:05;;;;;;;12.27;7.65;;;5.40;99.90;;;;;;5081612;28;20205;-52
2022/01/19 13:58:37;;;;;;;22.02;8.85;;;5.60;99.90;;;;;;5069501;28;20377;-51
2022/01/19 14:01:11;;;;;;;9.55;8.65;;;5.80;99.90;;;;;;5073075;28;20206;-53
2022/01/19 14:03:56;;;;;;;17.40;10.20;;;5.60;99.90;;;;;;5081032;28;20284;-49
2022/01/19 14:06:32;;;;;;;12.57;9.95;;;5.60;99.90;;;;;;5081197;28;20533;-53
2022/01/19 14:09:37;;;;;;;12.90;8.25;;;5.30;99.90;;;;;;5086025;28;20273;-54
2022/01/19 14:12:11;;;;;;;16.23;12.77;;;5.20;99.90;;;;;;5083431;28;20240;-53
2022/01/19 14:14:49;;;;;;;12.93;9.70;;;5.10;99.90;;;;;;5081887;28;20226;-52
2022/01/19 14:17:24;;;;;;;11.63;9.48;;;5.30;99.90;;;;;;5071517;28;20263;-56
2022/01/19 14:19:52;;;;;;;15.85;8.70;;;5.20;99.90;;;;;;5076209;28;20198;-50
2022/01/19 14:22:20;;;;;;;13.00;10.52;;;5.30;99.90;;;;;;5083827;28;20278;-53
2022/01/19 14:24:58;;;;;;;16.92;9.55;;;5.10;99.90;;;;;;5081988;28;20446;-54
2022/01/19 14:27:49;;;;;;;29.17;16.70;;;5.00;99.90;;;;;;5083789;28;20536;-51
2022/01/19 14:30:20;;;;;;;18.42;11.52;;;5.00;99.90;;;;;;5061872;28;20297;-53
2022/01/19 14:32:51;;;;;;;17.67;12.25;;;4.90;99.90;;;;;;5051449;28;20199;-57
2022/01/19 14:35:19;;;;;;;24.52;12.98;;;4.90;99.90;;;;;;5049959;28;20530;-52
2022/01/19 14:38:15;;;;;;;16.63;10.40;;;4.90;99.90;;;;;;5046442;28;20211;-52
2022/01/19 14:40:50;;;;;;;18.27;12.50;;;4.60;99.90;;;;;;5044965;28;20222;-52